Andrews, Indiana
Current Conditions -  °F | °C
As of 7:55 PM on Wednesday 22 Oct 2014 (Local Time) from KHHG Reporting Station
Clear Clear  
Wind Chill: 41°   Ceiling: Unl
Heat Index: 44°   Visibility: 10mi
Dew Point: 39°   Wind: 5mph
Humidity: 84%   Direction: 100°E
Pressure: 30.28"   Gusts: NA
Location:  40.86°N, 85.6°W
Report Text: KHHG 222355Z AUTO 10004KT 10SM CLR 07/04 A3028 RMK AO2 T00650040 10126 20065
Loading
Personal Weather Stations






























Interactive Weather Map
Tropical Storm Tracking
New forecast layout! Learn more

10-Day Weather Forecast

Advertisements
Track Severe Weather on mobile